This is the latest recevied weather packets stored in our database for station/object KF6ILA. If no packets are shown the sender has not sent any weather packets the latest 10 day(s).
| Time | Temp. | Humidity | Pressure | Rain* | Wind** | Luminosity | Snow |
|---|---|---|---|---|---|---|---|
| 1777626815 | 12.78° C | 67% | 1011 hPa | 0 mm | - | 0 W/m² | - |
| 1777626518 | 12.78° C | 67% | 1011.2 hPa | 0 mm | - | 0 W/m² | - |
| 1777625925 | 12.78° C | 66% | 1011.2 hPa | 0 mm | - | 0 W/m² | - |
| 1777625627 | 12.78° C | 67% | 1011.2 hPa | 0 mm | - | 0 W/m² | - |
| 1777625034 | 12.78° C | 68% | 1011.2 hPa | 0 mm | - | 0 W/m² | - |
| 1777624205 | 12.22° C | 70% | 1011.4 hPa | 0 mm | - | 0 W/m² | - |
| 1777624143 | 12.22° C | 70% | 1011.4 hPa | 0 mm | - | 0 W/m² | - |
| 1777622954 | 12.78° C | 70% | 1011.6 hPa | 0 mm | - | 0 W/m² | - |
| 1777622657 | 12.22° C | 70% | 1011.7 hPa | 0 mm | - | 0 W/m² | - |
| 1777622360 | 12.22° C | 71% | 1011.8 hPa | 0 mm | - | 0 W/m² | - |
| 1777621767 | 12.22° C | 73% | 1011.7 hPa | 0 mm | - | 0 W/m² | - |
| 1777621515 | 12.22° C | 75% | 1011.8 hPa | 0 mm | - | 0 W/m² | - |
| 1777621469 | 12.22° C | 75% | 1011.8 hPa | 0 mm | - | 0 W/m² | - |
| 1777621173 | 11.67° C | 77% | 1011.8 hPa | 0 mm | - | 0 W/m² | - |
| 1777620579 | 11.67° C | 81% | 1011.8 hPa | 0 mm | - | 0 W/m² | - |
| 1777620281 | 11.67° C | 83% | 1012 hPa | 0 mm | - | 0 W/m² | - |
| 1777619687 | 11.67° C | 87% | 1011.9 hPa | 0 mm | - | 0 W/m² | - |
| 1777619390 | 11.11° C | 89% | 1011.9 hPa | 0 mm | - | 0 W/m² | - |
| 1777617014 | 11.11° C | 88% | 1011.7 hPa | 0 mm | - | 0 W/m² | - |
| 1777616718 | 11.11° C | 87% | 1011.8 hPa | 0 mm | - | 0 W/m² | - |
| 1777616124 | 11.67° C | 84% | 1011.6 hPa | 0 mm | - | 0 W/m² | - |
| 1777615827 | 11.67° C | 83% | 1011.8 hPa | 0 mm | - | 0 W/m² | - |
| 1777615233 | 12.22° C | 80% | 1011.7 hPa | 0 mm | - | 0 W/m² | - |
| 1777614342 | 12.22° C | 79% | 1011.6 hPa | 0 mm | - | 0 W/m² | - |
| 1777614045 | 12.22° C | 79% | 1011.6 hPa | 0 mm | - | 0 W/m² | - |
* Rain latest hour (hover to see other rain measurements)
** Current wind speed in m/s (hover to see current wind gust speed)